Time;durP1;ratioP1;P1;durP2;ratioP2;P2;SDS_P1;SDS_P2;PMS_P1;PMS_P2;Temp;Humidity;BMP_temperature;BMP_pressure;BME280_temperature;BME280_humidity;BME280_pressure;Samples;Min_cycle;Max_cycle;Signal;HPM_P1;HPM_P2
2022/10/24 00:01:21;;;;;;;6.35;2.20;;;;;;;15.48;80.45;100315.50;4791516;29;20045;-90
2022/10/24 00:03:47;;;;;;;5.45;2.10;;;;;;;15.40;80.03;100291.25;4779002;29;20059;-90
2022/10/24 00:06:13;;;;;;;9.00;2.92;;;;;;;15.56;79.34;100311.38;4782041;29;20618;-89
2022/10/24 00:08:41;;;;;;;5.75;1.83;;;;;;;15.62;79.39;100315.44;4778688;29;20041;-89
2022/10/24 00:11:11;;;;;;;7.30;2.20;;;;;;;15.54;79.34;100302.66;4794150;29;20066;-90
2022/10/24 00:13:38;;;;;;;5.18;2.45;;;;;;;15.56;78.57;100300.72;4795167;29;20095;-90
2022/10/24 00:16:04;;;;;;;6.93;2.42;;;;;;;15.54;79.06;100296.47;4775089;29;20030;-90
2022/10/24 00:18:29;;;;;;;7.50;1.80;;;;;;;15.52;79.23;100295.69;4778520;29;20108;-90
2022/10/24 00:20:54;;;;;;;6.55;1.92;;;;;;;15.50;78.71;100298.47;4783752;29;20031;-90
2022/10/24 00:23:20;;;;;;;5.25;2.10;;;;;;;15.52;78.48;100301.03;4778633;30;20050;-90
2022/10/24 00:25:45;;;;;;;11.55;2.53;;;;;;;15.57;77.66;100293.56;4784104;29;20464;-90
2022/10/24 00:28:10;;;;;;;6.47;1.80;;;;;;;15.64;77.63;100297.56;4803899;29;20039;-91
2022/10/24 00:30:35;;;;;;;14.73;2.55;;;;;;;15.67;77.24;100291.19;4793264;29;20035;-90
2022/10/24 00:33:01;;;;;;;8.70;2.25;;;;;;;15.71;76.56;100287.31;4787437;29;20035;-91
2022/10/24 00:35:26;;;;;;;5.93;2.00;;;;;;;15.70;76.78;100286.47;4798343;29;20061;-89
2022/10/24 00:37:51;;;;;;;6.22;1.90;;;;;;;15.76;75.60;100294.03;4768565;30;20040;-90
2022/10/24 00:40:19;;;;;;;9.20;3.45;;;;;;;15.81;75.48;100299.91;4767414;29;20509;-90
2022/10/24 00:42:44;;;;;;;6.07;2.13;;;;;;;15.86;74.80;100296.06;4779044;29;20129;-89
2022/10/24 00:45:39;;;;;;;4.57;1.85;;;;;;;16.07;74.10;100291.84;4790898;29;20552;-89
2022/10/24 00:48:20;;;;;;;7.47;2.17;;;;;;;16.10;74.08;100285.44;4774244;29;20027;-90
2022/10/24 00:50:49;;;;;;;5.00;2.38;;;;;;;16.06;73.36;100291.00;4773634;29;20039;-89
2022/10/24 00:53:16;;;;;;;4.50;2.13;;;;;;;16.14;72.57;100285.13;4800160;29;20388;-91
2022/10/24 00:55:46;;;;;;;6.70;2.08;;;;;;;16.05;73.59;100275.13;4795075;29;20519;-90
2022/10/24 00:58:12;;;;;;;8.10;2.90;;;;;;;16.04;72.79;100282.28;4790087;29;20579;-89
2022/10/24 01:00:37;;;;;;;4.43;2.15;;;;;;;16.05;73.24;100288.44;4786753;29;20030;-89
2022/10/24 01:03:03;;;;;;;8.95;2.55;;;;;;;16.01;72.83;100277.16;4783538;29;20039;-88
2022/10/24 01:05:39;;;;;;;5.72;2.22;;;;;;;15.92;73.20;100282.28;4794684;29;20031;-90
2022/10/24 01:08:25;;;;;;;3.90;2.30;;;;;;;15.97;73.33;100288.13;4797228;29;20027;-89
2022/10/24 01:11:08;;;;;;;2.85;2.20;;;;;;;15.97;72.78;100288.97;4791538;29;20537;-90
2022/10/24 01:13:45;;;;;;;8.55;3.03;;;;;;;15.93;72.75;100281.31;4777740;29;20623;-89
2022/10/24 01:16:16;;;;;;;5.35;2.30;;;;;;;15.87;73.51;100279.94;4775475;29;20031;-91
2022/10/24 01:18:50;;;;;;;7.47;2.83;;;;;;;15.92;72.45;100279.63;4791941;29;20051;-90
2022/10/24 01:21:29;;;;;;;6.50;2.25;;;;;;;15.99;72.53;100281.75;4785967;29;20038;-89
2022/10/24 01:24:01;;;;;;;5.35;2.15;;;;;;;16.06;71.70;100283.00;4774533;29;20039;-90
2022/10/24 01:26:53;;;;;;;6.80;2.45;;;;;;;16.18;70.87;100275.94;4779216;29;20599;-89
2022/10/24 01:29:45;;;;;;;4.00;1.98;;;;;;;16.30;71.03;100274.19;4769080;29;20046;-90
2022/10/24 01:32:16;;;;;;;5.45;1.80;;;;;;;16.25;70.77;100260.31;4781366;29;20400;-90
2022/10/24 01:34:50;;;;;;;7.05;2.58;;;;;;;16.20;70.33;100268.66;4771223;29;20039;-90
2022/10/24 01:37:28;;;;;;;7.15;2.38;;;;;;;16.23;70.47;100264.94;4793015;29;20110;-89
2022/10/24 01:40:01;;;;;;;4.80;2.17;;;;;;;16.27;70.05;100264.59;4775240;29;20414;-89
2022/10/24 01:42:31;;;;;;;6.10;2.63;;;;;;;16.27;69.36;100259.28;4785102;29;20043;-90
2022/10/24 01:45:00;;;;;;;4.05;2.13;;;;;;;16.36;68.94;100260.38;4798230;29;20433;-90
2022/10/24 01:47:29;;;;;;;5.28;2.42;;;;;;;16.46;68.02;100257.88;4795060;29;20035;-89
2022/10/24 01:50:00;;;;;;;3.90;2.17;;;;;;;16.50;68.18;100259.38;4797756;29;20043;-87
2022/10/24 01:52:29;;;;;;;3.08;1.70;;;;;;;16.55;67.12;100254.53;4784102;29;20035;-89
2022/10/24 01:54:54;;;;;;;5.20;2.00;;;;;;;16.56;67.11;100250.94;4774011;29;20073;-89
2022/10/24 01:57:26;;;;;;;3.10;2.00;;;;;;;16.54;67.13;100251.00;4778141;30;20492;-90
2022/10/24 01:59:51;;;;;;;5.63;1.98;;;;;;;16.54;67.34;100255.50;4788253;29;20051;-90
2022/10/24 02:02:26;;;;;;;5.35;1.50;;;;;;;16.54;66.96;100250.16;4803768;29;20070;-91
2022/10/24 02:05:08;;;;;;;8.15;2.17;;;;;;;16.55;66.91;100247.41;4774421;30;20499;-90
2022/10/24 02:07:35;;;;;;;6.90;2.00;;;;;;;16.65;66.27;100247.56;4770575;29;20126;-90
2022/10/24 02:10:06;;;;;;;3.63;1.65;;;;;;;16.59;66.52;100251.53;4792853;29;20039;-89
2022/10/24 02:12:33;;;;;;;3.13;1.70;;;;;;;16.56;66.63;100249.09;4800145;29;20031;-89
2022/10/24 02:15:13;;;;;;;4.55;2.15;;;;;;;16.50;66.52;100254.88;4791130;29;20035;-90
2022/10/24 02:17:38;;;;;;;2.67;1.63;;;;;;;16.52;66.01;100244.97;4771821;30;20053;-91
2022/10/24 02:20:05;;;;;;;6.68;1.85;;;;;;;16.55;65.98;100241.19;4773575;29;20028;-90
2022/10/24 02:22:46;;;;;;;2.85;1.70;;;;;;;16.57;66.01;100250.81;4798795;29;20027;-90
2022/10/24 02:25:23;;;;;;;6.68;1.90;;;;;;;16.58;66.31;100252.50;4779029;30;20122;-91
2022/10/24 02:27:54;;;;;;;5.53;2.05;;;;;;;16.53;65.72;100235.97;4763433;30;20031;-91
2022/10/24 02:30:22;;;;;;;5.30;1.88;;;;;;;16.54;65.56;100252.84;4774816;29;20092;-89
2022/10/24 02:32:52;;;;;;;5.85;1.90;;;;;;;16.55;65.58;100252.75;4766701;30;20492;-91
2022/10/24 02:35:21;;;;;;;8.23;2.08;;;;;;;16.52;65.91;100252.13;4773733;30;20044;-89
2022/10/24 02:37:50;;;;;;;5.00;1.52;;;;;;;16.45;66.03;100245.50;4769005;30;20663;-90
2022/10/24 02:40:18;;;;;;;9.43;2.10;;;;;;;16.40;65.97;100245.00;4776824;30;20044;-89
2022/10/24 02:42:46;;;;;;;7.25;1.80;;;;;;;16.37;65.59;100240.78;4768610;30;20071;-90
2022/10/24 02:45:14;;;;;;;4.25;1.77;;;;;;;16.52;64.75;100252.13;4783489;29;20126;-90
2022/10/24 02:47:41;;;;;;;2.97;1.67;;;;;;;16.56;64.84;100227.75;4777874;29;20036;-91
2022/10/24 02:50:08;;;;;;;8.88;1.52;;;;;;;16.56;64.58;100242.91;4769718;30;20035;-91
2022/10/24 02:52:34;;;;;;;6.85;1.65;;;;;;;16.53;64.73;100232.47;4779517;30;20039;-91
2022/10/24 02:55:00;;;;;;;4.03;1.55;;;;;;;16.52;64.63;100252.97;4768890;30;20492;-91
2022/10/24 02:57:25;;;;;;;4.50;1.58;;;;;;;16.52;65.06;100241.44;4779597;30;20209;-90
2022/10/24 02:59:52;;;;;;;13.15;2.78;;;;;;;16.46;64.55;100245.44;4775187;29;20031;-90
2022/10/24 03:02:17;;;;;;;4.22;1.52;;;;;;;16.53;64.27;100260.00;4786611;30;20480;-90
2022/10/24 03:04:42;;;;;;;4.13;1.52;;;;;;;16.56;64.50;100264.25;4774462;29;20035;-90
2022/10/24 03:07:08;;;;;;;3.05;1.33;;;;;;;16.57;64.00;100240.13;4779170;29;20093;-91
2022/10/24 03:09:33;;;;;;;8.40;1.58;;;;;;;16.62;63.78;100254.94;4773903;30;20102;-91
2022/10/24 03:11:59;;;;;;;8.45;1.83;;;;;;;16.57;64.37;100245.47;4776644;29;20032;-91
2022/10/24 03:14:24;;;;;;;5.57;1.75;;;;;;;16.62;63.40;100242.44;4780430;30;20115;-92
2022/10/24 03:16:49;;;;;;;6.30;1.73;;;;;;;16.72;63.27;100246.16;4783541;29;20522;-91
2022/10/24 03:19:15;;;;;;;5.22;1.33;;;;;;;16.73;63.60;100239.84;4770568;29;20544;-93
2022/10/24 03:21:41;;;;;;;4.38;2.17;;;;;;;16.66;63.80;100243.94;4782309;30;20038;-90
2022/10/24 03:24:06;;;;;;;3.13;1.20;;;;;;;16.68;63.64;100257.16;4773376;30;20381;-91
2022/10/24 03:26:31;;;;;;;8.52;1.60;;;;;;;16.64;63.75;100248.50;4785563;30;20032;-91
2022/10/24 03:28:57;;;;;;;3.03;1.20;;;;;;;16.63;64.06;100249.47;4774805;30;20035;-92
2022/10/24 03:31:22;;;;;;;6.50;1.40;;;;;;;16.53;64.55;100253.81;4782515;30;20162;-92
2022/10/24 03:33:47;;;;;;;4.75;1.83;;;;;;;16.47;64.55;100243.59;4770884;30;20032;-91
2022/10/24 03:36:13;;;;;;;9.00;1.67;;;;;;;16.43;65.06;100242.13;4775953;30;20063;-91
2022/10/24 03:38:38;;;;;;;3.13;1.60;;;;;;;16.52;64.34;100233.44;4761284;30;20039;-92
2022/10/24 03:41:04;;;;;;;5.50;1.77;;;;;;;16.52;64.60;100242.28;4778041;29;20027;-92
2022/10/24 03:43:29;;;;;;;4.03;1.50;;;;;;;16.54;64.26;100237.69;4779585;30;20122;-91
2022/10/24 03:45:54;;;;;;;5.38;1.55;;;;;;;16.48;64.33;100235.47;4768282;30;20074;-92
2022/10/24 03:48:20;;;;;;;6.28;1.63;;;;;;;16.50;64.41;100222.84;4777895;30;20061;-92
2022/10/24 03:50:45;;;;;;;3.58;1.50;;;;;;;16.49;64.84;100229.16;4774127;30;20039;-90
2022/10/24 03:53:10;;;;;;;6.32;2.15;;;;;;;16.53;64.32;100213.78;4783116;29;20118;-91
2022/10/24 03:55:36;;;;;;;4.15;1.67;;;;;;;16.67;64.04;100220.75;4789719;29;20164;-90
2022/10/24 03:58:01;;;;;;;2.78;1.58;;;;;;;16.66;63.91;100222.56;4788225;29;20039;-92
2022/10/24 04:00:27;;;;;;;6.82;1.90;;;;;;;16.65;64.24;100236.03;4777957;30;20024;-92
2022/10/24 04:02:54;;;;;;;5.95;1.40;;;;;;;16.68;64.01;100230.44;4779289;29;20504;-90
2022/10/24 04:05:19;;;;;;;6.45;1.83;;;;;;;16.63;64.00;100225.47;4771470;30;20034;-91
2022/10/24 04:07:44;;;;;;;9.25;1.52;;;;;;;16.66;63.53;100227.06;4781834;29;20031;-92
2022/10/24 04:10:10;;;;;;;4.35;1.60;;;;;;;16.63;63.95;100236.13;4778682;29;20032;-91
2022/10/24 04:12:35;;;;;;;4.93;1.60;;;;;;;16.64;64.51;100228.97;4783728;29;20039;-91
2022/10/24 04:15:01;;;;;;;4.78;1.70;;;;;;;16.65;64.39;100228.88;4773539;29;20396;-91
2022/10/24 04:17:26;;;;;;;5.47;1.35;;;;;;;16.68;64.08;100233.97;4787774;29;20115;-91
2022/10/24 04:19:51;;;;;;;4.38;1.45;;;;;;;16.58;64.64;100219.63;4790562;29;20473;-92
2022/10/24 04:22:17;;;;;;;5.75;1.88;;;;;;;16.56;64.25;100235.75;4797948;29;20528;-91
2022/10/24 04:24:42;;;;;;;5.60;1.27;;;;;;;16.48;64.83;100230.13;4775821;29;20038;-90
2022/10/24 04:27:08;;;;;;;3.55;1.20;;;;;;;16.56;64.09;100205.56;4799601;29;20068;-90
2022/10/24 04:29:34;;;;;;;2.78;1.35;;;;;;;16.54;64.15;100216.31;4776296;29;20048;-90
2022/10/24 04:31:59;;;;;;;3.70;1.33;;;;;;;16.56;64.18;100225.09;4785929;29;20026;-91
2022/10/24 04:34:24;;;;;;;5.95;1.20;;;;;;;16.63;64.44;100217.47;4776274;29;20031;-91
2022/10/24 04:36:50;;;;;;;3.45;1.17;;;;;;;16.57;63.71;100210.78;4783007;29;20552;-91
2022/10/24 04:39:15;;;;;;;10.85;1.45;;;;;;;16.54;64.04;100220.81;4783312;29;20114;-92
2022/10/24 04:41:40;;;;;;;3.55;1.13;;;;;;;16.49;64.07;100226.50;4791830;29;20484;-94
2022/10/24 04:44:06;;;;;;;5.35;1.40;;;;;;;16.56;63.62;100221.56;4779662;30;20035;-91
2022/10/24 04:46:31;;;;;;;5.50;1.40;;;;;;;16.64;63.70;100228.97;4773661;29;20040;-91
2022/10/24 04:48:57;;;;;;;4.60;1.42;;;;;;;16.60;63.56;100223.03;4777568;30;20084;-91
2022/10/24 04:51:22;;;;;;;6.43;1.65;;;;;;;16.57;63.62;100223.25;4797822;29;20042;-93
2022/10/24 04:53:47;;;;;;;4.85;1.50;;;;;;;16.58;63.92;100230.28;4780309;29;20039;-91
2022/10/24 04:56:13;;;;;;;5.85;1.50;;;;;;;16.62;63.78;100236.25;4798120;29;20518;-91
2022/10/24 04:58:38;;;;;;;3.30;1.20;;;;;;;16.59;63.89;100232.00;4796840;29;20039;-92
2022/10/24 05:01:03;;;;;;;4.30;1.40;;;;;;;16.72;63.41;100232.81;4780981;29;20451;-93
2022/10/24 05:03:29;;;;;;;7.80;1.40;;;;;;;16.69;63.75;100227.66;4769474;29;20293;-91
2022/10/24 05:05:54;;;;;;;4.70;1.30;;;;;;;16.82;63.58;100239.16;4798060;29;20424;-92
2022/10/24 05:08:19;;;;;;;4.95;1.70;;;;;;;16.85;63.29;100237.22;4802741;29;20077;-92
2022/10/24 05:10:45;;;;;;;4.55;1.17;;;;;;;16.93;63.01;100229.50;4769716;29;20035;-94
2022/10/24 05:13:10;;;;;;;4.40;1.20;;;;;;;16.82;63.65;100220.47;4781213;30;20023;-91
2022/10/24 05:15:35;;;;;;;7.20;1.45;;;;;;;16.77;63.77;100232.47;4794715;29;20186;-92
2022/10/24 05:18:01;;;;;;;6.30;1.42;;;;;;;16.72;63.48;100250.66;4797468;29;20055;-92
2022/10/24 05:20:26;;;;;;;6.90;1.80;;;;;;;16.69;63.79;100227.66;4776687;29;20031;-91
2022/10/24 05:22:51;;;;;;;6.32;1.35;;;;;;;16.66;64.45;100240.41;4781296;30;20032;-92
2022/10/24 05:25:17;;;;;;;5.72;1.45;;;;;;;16.59;64.87;100227.50;4780341;29;20066;-90
2022/10/24 05:27:42;;;;;;;6.28;1.70;;;;;;;16.56;64.90;100245.59;4781472;29;20045;-92
2022/10/24 05:30:08;;;;;;;7.00;1.58;;;;;;;16.63;64.77;100244.16;4780296;29;20548;-91
2022/10/24 05:32:33;;;;;;;6.55;1.60;;;;;;;16.70;64.47;100253.41;4781487;30;20035;-92
2022/10/24 05:34:59;;;;;;;5.80;1.65;;;;;;;16.70;64.92;100240.06;4797152;29;20083;-92
2022/10/24 05:37:24;;;;;;;7.68;1.73;;;;;;;16.76;64.50;100254.78;4792372;29;20042;-94
2022/10/24 05:39:49;;;;;;;4.45;1.60;;;;;;;16.83;63.72;100262.25;4794811;29;20087;-91
2022/10/24 05:42:15;;;;;;;6.53;1.25;;;;;;;16.81;64.51;100250.81;4795220;29;20031;-92
2022/10/24 05:44:41;;;;;;;6.53;1.33;;;;;;;16.83;64.08;100251.56;4795205;29;20027;-91
2022/10/24 05:47:06;;;;;;;10.07;1.85;;;;;;;16.83;64.30;100254.22;4806743;29;20301;-92
2022/10/24 05:49:31;;;;;;;5.18;1.40;;;;;;;16.88;63.86;100253.88;4776278;30;20086;-91
2022/10/24 05:51:56;;;;;;;6.70;1.70;;;;;;;16.91;63.93;100256.28;4789225;29;20516;-94
2022/10/24 05:54:22;;;;;;;8.07;1.48;;;;;;;16.95;63.80;100262.25;4795322;29;20035;-92
2022/10/24 05:56:47;;;;;;;5.35;1.38;;;;;;;16.89;63.72;100252.06;4789618;29;20039;-91
2022/10/24 05:59:12;;;;;;;6.15;1.42;;;;;;;16.95;63.56;100248.91;4779537;29;20118;-92
2022/10/24 06:01:39;;;;;;;6.20;1.38;;;;;;;16.85;63.84;100266.59;4805365;29;20084;-92
2022/10/24 06:04:04;;;;;;;8.48;2.08;;;;;;;16.88;63.62;100259.22;4795240;29;20116;-92
2022/10/24 06:06:29;;;;;;;4.90;1.65;;;;;;;16.85;64.03;100262.09;4789756;29;20039;-93
2022/10/24 06:08:55;;;;;;;6.85;1.30;;;;;;;16.77;63.69;100261.81;4795385;29;20067;-92
2022/10/24 06:11:20;;;;;;;6.78;1.75;;;;;;;16.74;63.96;100268.25;4798822;29;20050;-93
2022/10/24 06:13:45;;;;;;;7.65;1.60;;;;;;;16.78;63.95;100258.19;4779656;29;20468;-92
2022/10/24 06:16:11;;;;;;;6.15;1.58;;;;;;;16.82;64.28;100276.53;4804085;29;20095;-90
2022/10/24 06:18:38;;;;;;;4.88;1.20;;;;;;;16.83;64.41;100283.59;4776376;30;20051;-93
2022/10/24 06:21:06;;;;;;;8.02;2.03;;;;;;;16.81;64.14;100264.16;4782677;29;20476;-91
2022/10/24 06:23:31;;;;;;;9.45;1.40;;;;;;;16.65;65.21;100281.41;4777423;29;20024;-92
2022/10/24 06:25:57;;;;;;;4.95;1.30;;;;;;;16.56;65.04;100281.13;4784786;29;20168;-90
2022/10/24 06:28:22;;;;;;;8.02;1.52;;;;;;;16.63;64.58;100276.16;4788778;30;20404;-92
2022/10/24 06:30:50;;;;;;;7.40;1.85;;;;;;;16.63;65.04;100275.31;4770050;30;20477;-90
2022/10/24 06:33:15;;;;;;;10.98;1.42;;;;;;;16.56;65.80;100280.28;4769197;30;20046;-91
2022/10/24 06:35:40;;;;;;;7.43;1.77;;;;;;;16.45;65.50;100272.19;4781813;30;20416;-92
2022/10/24 06:38:06;;;;;;;6.00;1.35;;;;;;;16.48;66.28;100277.31;4772896;30;20036;-92
2022/10/24 06:40:32;;;;;;;7.07;1.50;;;;;;;16.45;65.92;100277.53;4781013;30;20109;-93
2022/10/24 06:42:57;;;;;;;7.63;1.92;;;;;;;16.42;65.79;100285.78;4780279;30;20023;-91
2022/10/24 06:45:22;;;;;;;6.40;1.38;;;;;;;16.44;65.82;100283.84;4775657;30;20054;-92
2022/10/24 06:47:49;;;;;;;6.72;1.42;;;;;;;16.45;65.83;100301.53;4784789;29;20040;-91
2022/10/24 06:50:14;;;;;;;10.02;1.70;;;;;;;16.39;66.10;100299.34;4783910;29;20043;-91
2022/10/24 06:52:39;;;;;;;6.10;1.40;;;;;;;16.46;65.90;100320.13;4777983;29;20028;-92
2022/10/24 06:55:05;;;;;;;6.68;1.60;;;;;;;16.43;65.89;100307.00;4776024;30;20084;-91
2022/10/24 06:57:30;;;;;;;7.50;1.25;;;;;;;16.52;65.53;100322.34;4783263;30;20027;-94
2022/10/24 06:59:55;;;;;;;6.95;1.70;;;;;;;16.47;65.57;100310.31;4774314;30;20035;-91
2022/10/24 07:02:21;;;;;;;5.32;1.17;;;;;;;16.58;65.49;100310.34;4770763;30;20092;-95
2022/10/24 07:04:46;;;;;;;8.00;1.85;;;;;;;16.61;66.00;100326.16;4784671;29;20034;-89
2022/10/24 07:07:17;;;;;;;6.60;1.83;;;;;;;16.67;66.29;100327.53;4786011;29;20023;-89
2022/10/24 07:09:43;;;;;;;6.53;1.30;;;;;;;16.65;67.10;100340.13;4774165;30;20031;-90
2022/10/24 07:12:09;;;;;;;9.00;1.95;;;;;;;16.46;67.08;100324.59;4781037;29;20035;-90
2022/10/24 07:14:34;;;;;;;6.65;1.40;;;;;;;16.43;67.37;100312.34;4773435;29;20118;-90
2022/10/24 07:16:59;;;;;;;4.60;1.20;;;;;;;16.46;67.75;100333.47;4785138;29;20046;-89
2022/10/24 07:19:25;;;;;;;9.80;1.65;;;;;;;16.31;68.44;100335.41;4785636;29;20082;-91
2022/10/24 07:21:50;;;;;;;6.32;1.60;;;;;;;16.25;68.73;100333.19;4786597;29;20027;-90
2022/10/24 07:24:15;;;;;;;12.27;1.92;;;;;;;16.21;68.76;100330.84;4774822;30;20039;-90
2022/10/24 07:26:40;;;;;;;7.05;1.70;;;;;;;16.23;69.33;100337.81;4783445;30;20033;-90
2022/10/24 07:29:06;;;;;;;9.18;1.90;;;;;;;16.29;69.78;100348.03;4781190;29;20081;-89
2022/10/24 07:31:34;;;;;;;5.15;1.38;;;;;;;16.47;68.77;100358.34;4767346;30;20520;-92
2022/10/24 07:34:01;;;;;;;6.45;1.25;;;;;;;16.58;68.42;100369.06;4767827;30;20039;-90
2022/10/24 07:36:27;;;;;;;7.40;1.35;;;;;;;16.56;68.59;100352.34;4779672;30;20847;-90
2022/10/24 07:38:55;;;;;;;9.88;1.27;;;;;;;16.67;67.71;100362.22;4788596;29;20055;-90
2022/10/24 07:41:23;;;;;;;5.85;1.50;;;;;;;16.81;67.71;100378.09;4775703;29;20492;-90
2022/10/24 07:43:48;;;;;;;11.25;1.70;;;;;;;16.86;66.68;100375.94;4769062;30;20032;-90
2022/10/24 07:46:16;;;;;;;8.07;1.75;;;;;;;16.90;66.91;100379.25;4770327;30;20031;-90
2022/10/24 07:48:41;;;;;;;8.90;1.48;;;;;;;16.96;65.81;100368.94;4773461;30;20504;-90
2022/10/24 07:51:13;;;;;;;5.32;1.58;;;;;;;17.23;65.49;100386.56;4773459;30;20027;-90
2022/10/24 07:53:39;;;;;;;9.10;1.73;;;;;;;17.25;65.12;100396.19;4763209;30;20039;-90
2022/10/24 07:56:08;;;;;;;5.65;1.60;;;;;;;17.11;66.35;100404.34;4772748;30;20111;-90
2022/10/24 07:58:34;;;;;;;6.57;1.30;;;;;;;17.05;66.68;100403.00;4751490;30;20197;-90
2022/10/24 08:01:11;;;;;;;9.50;1.90;;;;;;;17.01;66.68;100401.50;4766543;30;20031;-87
2022/10/24 08:03:37;;;;;;;7.82;1.50;;;;;;;17.06;65.87;100417.19;4778780;29;20043;-90
2022/10/24 08:06:12;;;;;;;5.70;1.67;;;;;;;17.06;65.96;100398.50;4780063;29;20114;-90
2022/10/24 08:08:37;;;;;;;3.83;1.20;;;;;;;16.96;65.93;100410.84;4775708;29;20549;-90
2022/10/24 08:11:11;;;;;;;5.53;1.45;;;;;;;16.94;66.46;100410.09;4779000;29;20039;-90
2022/10/24 08:13:36;;;;;;;6.82;1.60;;;;;;;16.92;66.36;100415.53;4775757;30;20101;-90
2022/10/24 08:16:07;;;;;;;6.93;1.45;;;;;;;16.91;66.38;100421.00;4779287;29;20039;-91
2022/10/24 08:18:33;;;;;;;5.28;1.02;;;;;;;17.00;66.20;100393.63;4786164;29;20063;-90
2022/10/24 08:21:01;;;;;;;8.75;1.17;;;;;;;17.09;65.95;100436.53;4777145;29;20561;-91
2022/10/24 08:23:26;;;;;;;6.63;1.25;;;;;;;17.18;65.89;100435.00;4762847;29;20031;-91
2022/10/24 08:25:52;;;;;;;9.77;1.58;;;;;;;17.62;64.52;100433.47;4785425;29;20033;-89
2022/10/24 08:28:17;;;;;;;7.70;1.15;;;;;;;18.98;60.78;100424.56;4787357;29;20027;-90
2022/10/24 08:30:43;;;;;;;5.20;1.35;;;;;;;19.06;60.11;100428.31;4797138;29;20408;-90
2022/10/24 08:33:08;;;;;;;9.77;1.58;;;;;;;18.53;60.81;100438.00;4795241;29;20489;-90
2022/10/24 08:35:33;;;;;;;6.20;1.33;;;;;;;18.06;61.95;100424.72;4775348;29;20030;-90
2022/10/24 08:38:00;;;;;;;7.55;1.83;;;;;;;17.83;62.24;100426.50;4783874;29;20042;-96
2022/10/24 08:40:26;;;;;;;5.10;1.27;;;;;;;18.14;61.06;100429.50;4769439;30;20023;-90
2022/10/24 08:42:52;;;;;;;6.20;1.33;;;;;;;17.81;61.68;100454.34;4770105;30;20038;-89
2022/10/24 08:45:42;;;;;;;8.52;1.65;;;;;;;17.63;62.91;100434.34;4788824;29;20030;-91
2022/10/24 08:48:12;;;;;;;5.55;1.75;;;;;;;17.88;62.38;100438.69;4773943;29;20435;-90
2022/10/24 08:50:43;;;;;;;4.28;1.23;;;;;;;19.41;58.70;100440.66;4772171;29;20472;-90
2022/10/24 08:53:14;;;;;;;9.30;1.40;;;;;;;21.14;54.44;100450.63;4781892;29;20039;-91
2022/10/24 08:55:48;;;;;;;4.72;1.17;;;;;;;22.31;51.02;100447.91;4794584;29;20041;-90
2022/10/24 08:58:17;;;;;;;7.13;1.60;;;;;;;22.47;49.32;100456.19;4799264;29;20458;-91
2022/10/24 09:00:46;;;;;;;8.75;1.17;;;;;;;22.07;48.64;100453.75;4769175;30;20497;-90
2022/10/24 09:03:27;;;;;;;7.32;1.63;;;;;;;22.58;48.78;100453.31;4786078;29;20079;-92
2022/10/24 09:06:00;;;;;;;7.03;1.10;;;;;;;23.44;47.61;100455.66;4791665;29;20023;-90
2022/10/24 09:08:34;;;;;;;3.53;1.00;;;;;;;23.79;45.96;100454.00;4779225;30;20034;-90
2022/10/24 09:11:02;;;;;;;6.07;1.13;;;;;;;24.31;44.74;100462.94;4787244;29;20032;-90
2022/10/24 09:13:29;;;;;;;4.43;1.58;;;;;;;23.88;44.62;100464.69;4779131;30;20035;-90
2022/10/24 09:15:55;;;;;;;4.28;1.25;;;;;;;23.56;44.89;100457.13;4799824;29;20500;-90
2022/10/24 09:18:26;;;;;;;5.88;0.98;;;;;;;23.71;44.56;100464.72;4764719;29;20058;-93
2022/10/24 09:20:52;;;;;;;7.07;1.40;;;;;;;24.14;43.57;100466.56;4790998;29;20035;-92
2022/10/24 09:23:21;;;;;;;4.30;1.40;;;;;;;25.06;42.39;100482.09;4794516;29;20042;-93
2022/10/24 09:25:50;;;;;;;5.75;1.50;;;;;;;25.59;41.82;100472.75;4797381;29;20164;-92
2022/10/24 09:28:16;;;;;;;9.23;1.75;;;;;;;24.90;42.87;100482.00;4784806;29;20033;-90
2022/10/24 09:30:41;;;;;;;6.35;1.65;;;;;;;24.79;43.22;100469.63;4774796;29;20027;-92
2022/10/24 09:33:27;;;;;;;5.32;1.45;;;;;;;25.10;42.82;100474.53;4793790;29;20035;-93
2022/10/24 09:35:56;;;;;;;4.68;1.25;;;;;;;24.83;42.46;100481.00;4778881;29;20031;-91
2022/10/24 09:38:21;;;;;;;5.78;1.33;;;;;;;25.01;41.18;100475.47;4760137;29;20031;-93
2022/10/24 09:40:51;;;;;;;6.33;1.30;;;;;;;24.89;42.69;100491.97;4795825;29;20032;-92
2022/10/24 09:43:45;;;;;;;8.93;1.55;;;;;;;25.35;42.62;100491.66;4781321;29;20039;-91
2022/10/24 09:46:16;;;;;;;6.07;1.65;;;;;;;26.26;39.45;100506.97;4796292;29;20038;-91
2022/10/24 09:48:44;;;;;;;5.18;1.25;;;;;;;27.01;37.44;100484.91;4769044;30;20031;-90
2022/10/24 09:51:19;;;;;;;5.18;1.23;;;;;;;27.27;37.39;100518.03;4787171;29;20027;-91
2022/10/24 09:53:59;;;;;;;6.15;1.40;;;;;;;26.60;39.21;100513.03;4795838;29;20031;-93
2022/10/24 09:56:38;;;;;;;4.03;1.05;;;;;;;26.82;39.51;100506.00;4797664;29;20454;-92
2022/10/24 09:59:16;;;;;;;4.03;1.38;;;;;;;27.66;37.05;100511.69;4801497;29;20034;-91
2022/10/24 10:01:41;;;;;;;9.98;1.83;;;;;;;27.88;35.87;100521.72;4787818;29;20154;-91
2022/10/24 10:04:16;;;;;;;8.93;1.90;;;;;;;26.18;38.64;100527.63;4797047;29;20479;-91
2022/10/24 10:06:44;;;;;;;4.35;1.45;;;;;;;25.09;40.41;100516.97;4760647;29;20535;-92
2022/10/24 10:09:15;;;;;;;6.88;1.50;;;;;;;25.33;41.25;100512.66;4801764;29;20480;-91
2022/10/24 10:11:41;;;;;;;7.18;1.75;;;;;;;24.13;42.68;100527.84;4797951;29;20510;-91
2022/10/24 10:14:23;;;;;;;8.68;1.75;;;;;;;23.21;45.69;100538.88;4790786;29;20058;-92
2022/10/24 10:17:05;;;;;;;5.75;1.60;;;;;;;22.09;47.92;100540.59;4776627;29;20035;-92
2022/10/24 10:19:35;;;;;;;3.88;1.33;;;;;;;21.10;49.95;100526.31;4781247;29;20062;-94
2022/10/24 10:22:04;;;;;;;5.78;1.35;;;;;;;20.36;52.66;100531.88;4800780;29;20062;-92
2022/10/24 10:24:38;;;;;;;6.80;1.60;;;;;;;20.24;51.87;100546.38;4776703;30;20122;-94
2022/10/24 10:27:31;;;;;;;8.18;1.77;;;;;;;22.17;49.06;100554.22;4802132;29;20031;-89
2022/10/24 10:30:13;;;;;;;6.88;2.58;;;;;;;24.16;44.99;100553.69;4795209;29;20027;-89
2022/10/24 10:33:16;;;;;;;8.77;1.42;;;;;;;25.62;42.11;100548.22;4783113;29;20034;-89
2022/10/24 10:35:51;;;;;;;6.93;1.48;;;;;;;27.28;39.39;100555.03;4788660;29;20096;-90
2022/10/24 10:38:35;;;;;;;6.00;1.35;;;;;;;28.35;35.89;100553.31;4777350;29;20024;-89
2022/10/24 10:41:22;;;;;;;6.57;1.63;;;;;;;27.82;36.83;100546.06;4796475;29;20036;-90
2022/10/24 10:44:05;;;;;;;6.70;1.50;;;;;;;25.58;39.80;100568.53;4799724;29;20062;-89
2022/10/24 10:46:36;;;;;;;;;;;;;;;24.40;43.15;100574.69;4783760;29;20053;-88
2022/10/24 10:49:11;;;;;;;8.75;1.83;;;;;;;22.65;46.22;100578.38;4793867;29;19986;-89
2022/10/24 10:51:46;;;;;;;8.75;1.70;;;;;;;21.77;48.51;100575.88;4791906;29;20041;-89
2022/10/24 10:54:49;;;;;;;7.90;1.70;;;;;;;21.13;51.53;100604.00;4795405;29;20092;-89
2022/10/24 10:57:28;;;;;;;9.00;1.85;;;;;;;20.32;54.65;100586.81;4786033;29;20064;-89
2022/10/24 11:00:01;;;;;;;7.63;1.75;;;;;;;19.64;57.51;100588.09;4785412;29;20076;-88
2022/10/24 11:02:54;;;;;;;5.35;1.30;;;;;;;19.21;58.69;100583.47;4805836;29;20042;-89
2022/10/24 11:05:39;;;;;;;6.32;1.38;;;;;;;19.00;60.49;100605.66;4785687;29;20076;-89
2022/10/24 11:08:27;;;;;;;6.63;1.60;;;;;;;18.74;60.13;100598.81;4779122;30;20035;-89
2022/10/24 11:10:57;;;;;;;6.35;1.42;;;;;;;18.51;62.36;100617.50;4789433;29;20034;-90
2022/10/24 11:13:45;;;;;;;6.80;1.58;;;;;;;18.42;62.78;100594.13;4797343;29;20182;-88
2022/10/24 11:16:20;;;;;;;5.03;1.77;;;;;;;18.70;63.11;100590.19;4790457;29;20503;-88
2022/10/24 11:18:50;;;;;;;7.78;1.60;;;;;;;19.67;59.66;100594.03;4804687;29;20063;-89
2022/10/24 11:21:20;;;;;;;10.50;1.30;;;;;;;22.29;52.72;100595.31;4776712;29;20491;-88
2022/10/24 11:24:17;;;;;;;6.97;1.60;;;;;;;24.41;48.42;100595.28;4776664;29;20176;-88
2022/10/24 11:27:02;;;;;;;8.95;1.45;;;;;;;25.73;46.08;100593.09;4748200;29;20050;-89
2022/10/24 11:29:38;;;;;;;8.32;2.20;;;;;;;26.08;43.37;100602.84;4782942;29;20065;-88
2022/10/24 11:32:10;;;;;;;9.68;2.13;;;;;;;26.25;43.04;100592.81;4801540;29;20041;-88
2022/10/24 11:34:49;;;;;;;6.72;1.63;;;;;;;25.88;43.23;100598.72;4795333;29;20062;-88